Time;durP1;ratioP1;P1;durP2;ratioP2;P2;SDS_P1;SDS_P2;PMS_P1;PMS_P2;Temp;Humidity;BMP_temperature;BMP_pressure;BME280_temperature;BME280_humidity;BME280_pressure;Samples;Min_cycle;Max_cycle;Signal;HPM_P1;HPM_P2
2023/01/13 00:01:26;;;;;;;3.73;2.83;;;;;;;4.95;83.12;97299.97;4988748;28;20292;-73
2023/01/13 00:03:54;;;;;;;3.57;2.67;;;;;;;4.85;82.99;97283.06;4991030;28;20236;-71
2023/01/13 00:06:26;;;;;;;4.00;3.30;;;;;;;5.02;82.43;97292.16;4989852;28;20749;-72
2023/01/13 00:08:54;;;;;;;3.70;3.30;;;;;;;4.76;83.37;97278.09;4990909;28;20239;-72
2023/01/13 00:11:21;;;;;;;3.27;2.83;;;;;;;4.84;83.25;97301.88;4989367;28;20201;-72
2023/01/13 00:13:48;;;;;;;3.23;2.93;;;;;;;4.95;83.26;97297.41;4990755;28;20187;-78
2023/01/13 00:16:17;;;;;;;4.47;3.70;;;;;;;4.80;82.98;97300.25;4990180;28;20275;-72
2023/01/13 00:18:44;;;;;;;4.57;2.97;;;;;;;4.81;83.91;97299.41;4989509;28;20246;-72
2023/01/13 00:21:11;;;;;;;3.83;3.10;;;;;;;4.89;83.42;97300.09;4989629;28;20666;-73
2023/01/13 00:23:39;;;;;;;3.27;2.90;;;;;;;5.01;83.24;97303.31;4987597;28;20722;-73
2023/01/13 00:26:12;;;;;;;3.87;3.07;;;;;;;4.93;82.59;97300.88;4991235;28;20254;-72
2023/01/13 00:28:39;;;;;;;3.00;2.70;;;;;;;4.86;83.61;97305.25;4989106;28;20285;-72
2023/01/13 00:31:08;;;;;;;3.20;2.90;;;;;;;4.87;83.24;97306.13;5005960;28;20767;-72
2023/01/13 00:33:35;;;;;;;4.80;3.07;;;;;;;4.87;84.19;97299.28;5008296;28;20183;-72
2023/01/13 00:36:04;;;;;;;5.63;2.90;;;;;;;4.78;84.16;97298.63;5007501;28;20602;-75
2023/01/13 00:38:33;;;;;;;3.47;2.70;;;;;;;4.92;82.78;97304.31;5009945;28;20235;-73
2023/01/13 00:41:03;;;;;;;3.20;2.90;;;;;;;4.95;83.50;97305.09;5008539;28;20242;-72
2023/01/13 00:43:31;;;;;;;5.73;3.33;;;;;;;4.77;83.62;97297.75;5009947;28;20279;-72
2023/01/13 00:45:58;;;;;;;4.37;3.30;;;;;;;4.80;83.54;97299.44;5007072;28;20185;-79
2023/01/13 00:48:27;;;;;;;4.27;3.30;;;;;;;4.60;84.16;97286.09;5009534;28;20197;-75
2023/01/13 00:50:59;;;;;;;6.10;3.67;;;;;;;4.57;84.85;97292.16;5009186;28;20202;-72
2023/01/13 00:53:27;;;;;;;4.67;3.93;;;;;;;4.72;83.81;97291.00;5008246;28;20279;-81
2023/01/13 00:56:00;;;;;;;7.10;4.90;;;;;;;4.60;83.76;97288.69;5009572;28;20627;-75
2023/01/13 00:58:30;;;;;;;7.30;4.87;;;;;;;4.60;83.94;97293.81;5008121;28;20288;-81
2023/01/13 01:01:07;;;;;;;7.83;5.10;;;;;;;4.53;83.99;97287.13;5009533;28;20188;-80
2023/01/13 01:03:34;;;;;;;4.93;3.47;;;;;;;4.34;84.86;97271.22;5007062;28;20215;-76
2023/01/13 01:06:24;;;;;;;5.50;3.77;;;;;;;4.28;86.38;97283.28;5008824;28;20193;-80
2023/01/13 01:08:53;;;;;;;4.97;3.27;;;;;;;4.38;85.65;97272.84;5009469;28;20188;-79
2023/01/13 01:11:23;;;;;;;7.27;4.40;;;;;;;4.24;86.27;97279.09;5007841;28;20189;-79
2023/01/13 01:13:51;;;;;;;9.07;4.93;;;;;;;4.34;86.56;97270.38;5009187;28;20192;-78
2023/01/13 01:16:20;;;;;;;12.37;7.43;;;;;;;4.18;87.38;97281.75;5007682;28;20278;-81
2023/01/13 01:18:49;;;;;;;10.97;6.43;;;;;;;4.17;88.44;97270.66;5008802;28;20254;-78
2023/01/13 01:21:17;;;;;;;11.87;6.33;;;;;;;4.33;87.14;97274.63;5008730;28;20194;-81
2023/01/13 01:23:44;;;;;;;8.97;5.53;;;;;;;4.32;88.19;97280.66;5007918;28;20690;-81
2023/01/13 01:26:15;;;;;;;6.27;4.47;;;;;;;4.28;87.20;97273.88;4992615;28;20251;-79
2023/01/13 01:28:42;;;;;;;5.47;4.03;;;;;;;4.35;87.29;97285.72;4987734;28;20662;-79
2023/01/13 01:31:14;;;;;;;7.13;4.30;;;;;;;4.46;86.79;97267.56;4989289;28;20686;-78
2023/01/13 01:33:41;;;;;;;4.47;3.77;;;;;;;4.47;86.76;97269.28;4988032;28;20193;-71
2023/01/13 01:36:10;;;;;;;4.97;3.60;;;;;;;4.61;85.94;97268.16;4987761;28;20193;-72
2023/01/13 01:38:37;;;;;;;4.67;3.43;;;;;;;4.61;85.21;97265.59;4988964;28;20592;-71
2023/01/13 01:41:05;;;;;;;4.73;3.60;;;;;;;4.60;84.47;97261.31;4987793;28;20200;-74
2023/01/13 01:43:58;;;;;;;4.67;3.30;;;;;;;4.36;84.63;97263.50;4989018;28;20602;-78
2023/01/13 01:46:30;;;;;;;4.83;3.97;;;;;;;4.21;87.34;97267.16;4987322;28;20660;-76
2023/01/13 01:49:10;;;;;;;4.97;4.17;;;;;;;4.25;87.00;97263.69;4989048;28;20590;-81
2023/01/13 01:52:10;;;;;;;7.17;6.20;;;;;;;4.31;86.13;97268.69;4988568;28;20200;-79
2023/01/13 01:54:41;;;;;;;7.60;4.70;;;;;;;4.55;85.41;97267.41;4987161;28;20608;-73
2023/01/13 01:57:12;;;;;;;5.13;3.90;;;;;;;4.52;84.75;97267.47;4988673;28;20589;-73
2023/01/13 01:59:40;;;;;;;5.73;4.57;;;;;;;4.42;87.24;97269.34;4987366;28;20718;-80
2023/01/13 02:02:07;;;;;;;6.10;4.27;;;;;;;4.42;86.76;97251.41;4988463;28;20770;-78
2023/01/13 02:04:42;;;;;;;5.10;4.03;;;;;;;4.64;85.66;97272.34;4986561;28;20219;-79
2023/01/13 02:07:09;;;;;;;6.57;3.77;;;;;;;4.61;84.83;97265.59;4987360;28;20280;-79
2023/01/13 02:09:36;;;;;;;3.30;3.00;;;;;;;4.58;84.03;97265.63;4988666;28;20689;-79
2023/01/13 02:14:48;;;;;;;5.63;3.27;;;;;;;4.64;84.60;97262.94;4988525;28;20192;-78
2023/01/13 02:17:18;;;;;;;4.33;2.87;;;;;;;4.58;85.25;97269.91;4987358;28;20230;-74
2023/01/13 02:19:57;;;;;;;3.10;2.80;;;;;;;4.60;84.56;97265.59;4986322;28;20193;-73
2023/01/13 02:22:45;;;;;;;4.37;3.23;;;;;;;4.51;84.96;97266.63;4988526;28;20197;-75
2023/01/13 02:25:49;;;;;;;3.83;2.83;;;;;;;4.66;84.09;97266.34;4986044;28;20816;-73
2023/01/13 02:31:42;;;;;;;3.63;3.03;;;;;;;4.67;84.20;97267.19;4986877;28;20686;-76
2023/01/13 02:34:16;;;;;;;4.83;3.47;;;;;;;4.68;83.28;97268.84;4986668;28;20194;-78
2023/01/13 02:36:56;;;;;;;4.83;3.20;;;;;;;4.56;83.76;97257.13;4988101;28;20184;-77
2023/01/13 02:39:35;;;;;;;3.50;2.73;;;;;;;4.68;83.96;97274.84;4988253;28;20201;-74
2023/01/13 02:45:28;;;;;;;3.77;3.17;;;;;;;4.25;85.12;97275.63;4988074;28;20217;-75
2023/01/13 02:47:58;;;;;;;4.03;2.73;;;;;;;4.25;84.82;97276.50;4988322;28;20188;-75
2023/01/13 02:50:34;;;;;;;4.70;3.13;;;;;;;4.14;84.78;97261.28;4985565;28;20192;-74
2023/01/13 02:53:10;;;;;;;3.80;3.17;;;;;;;4.05;85.13;97263.19;4988228;28;20203;-74
2023/01/13 02:55:42;;;;;;;7.07;4.97;;;;;;;3.90;85.53;97268.53;4985346;28;20191;-74
2023/01/13 02:58:14;;;;;;;3.60;3.10;;;;;;;4.08;85.84;97279.34;4988189;28;20218;-72
2023/01/13 03:00:42;;;;;;;2.83;2.53;;;;;;;3.96;86.35;97281.25;4987631;28;20207;-75
2023/01/13 03:03:09;;;;;;;3.67;2.80;;;;;;;3.72;86.19;97271.41;4987158;28;20268;-78
2023/01/13 03:05:37;;;;;;;2.87;2.50;;;;;;;3.71;86.44;97259.47;4988186;28;20320;-71
2023/01/13 03:08:22;;;;;;;2.77;2.27;;;;;;;3.85;86.90;97278.84;4986562;28;20697;-72
2023/01/13 03:11:02;;;;;;;2.70;2.50;;;;;;;4.06;87.05;97278.50;4986631;28;20196;-72
2023/01/13 03:13:54;;;;;;;4.90;3.30;;;;;;;4.31;85.90;97278.13;4987187;28;20196;-73
2023/01/13 03:16:58;;;;;;;4.60;3.37;;;;;;;4.32;84.92;97275.53;4986726;28;20664;-72
2023/01/13 03:19:37;;;;;;;4.20;2.87;;;;;;;4.21;85.02;97282.53;4991682;28;20192;-72
2023/01/13 03:22:13;;;;;;;2.90;2.60;;;;;;;4.24;85.48;97279.94;4990634;28;20187;-72
2023/01/13 03:24:46;;;;;;;3.87;3.10;;;;;;;4.45;85.21;97287.22;4990716;28;20257;-72
2023/01/13 03:27:13;;;;;;;3.67;3.00;;;;;;;4.49;84.72;97278.59;4993869;28;20748;-72
2023/01/13 03:29:52;;;;;;;4.23;3.20;;;;;;;4.57;83.48;97284.47;5009461;28;20195;-72
2023/01/13 03:32:37;;;;;;;5.10;3.53;;;;;;;4.64;84.18;97273.22;5011138;28;20277;-72
2023/01/13 03:35:08;;;;;;;6.80;3.57;;;;;;;4.62;84.79;97285.22;5010112;28;20189;-74
2023/01/13 03:37:40;;;;;;;3.33;3.03;;;;;;;4.74;82.47;97273.91;5010516;28;20212;-74
2023/01/13 03:40:16;;;;;;;5.63;3.80;;;;;;;4.59;83.70;97298.13;5011324;28;20198;-72
2023/01/13 03:44:20;;;;;;;4.33;3.50;;;;;;;4.33;84.31;97294.31;5009221;28;20191;-73
2023/01/13 03:45:36;;;;;;;6.37;3.47;;;;;;;4.31;85.62;97291.75;5010951;28;20255;-72
2023/01/13 03:48:09;;;;;;;4.60;2.63;;;;;;;4.35;84.76;97267.75;5009682;28;20188;-72
2023/01/13 03:50:43;;;;;;;3.90;3.20;;;;;;;4.44;85.52;97295.81;5010200;28;20187;-73
2023/01/13 03:53:15;;;;;;;5.03;4.10;;;;;;;4.60;84.07;97297.22;5010780;28;20190;-72
2023/01/13 03:56:17;;;;;;;6.70;3.63;;;;;;;4.44;84.42;97293.25;5008943;28;20193;-73
2023/01/13 03:58:48;;;;;;;5.03;3.43;;;;;;;4.66;84.13;97291.97;5000393;28;20206;-72
2023/01/13 04:01:14;;;;;;;5.90;3.87;;;;;;;4.64;83.07;97293.72;5009911;28;20286;-73
2023/01/13 04:03:50;;;;;;;6.97;4.93;;;;;;;4.63;83.62;97291.19;5009880;28;20213;-73
2023/01/13 04:06:45;;;;;;;7.53;5.60;;;;;;;4.55;84.83;97286.22;5010347;28;20422;-73
2023/01/13 04:09:19;;;;;;;11.53;7.43;;;;;;;4.57;84.37;97287.03;4991511;28;20195;-73
2023/01/13 04:11:53;;;;;;;14.67;8.73;;;;;;;4.57;84.21;97283.63;5010491;28;20199;-75
2023/01/13 04:14:23;;;;;;;15.70;8.87;;;;;;;4.57;84.44;97307.56;5008414;28;20198;-72
2023/01/13 04:16:53;;;;;;;16.17;10.30;;;;;;;4.54;84.69;97314.44;5005190;28;20283;-72
2023/01/13 04:19:20;;;;;;;16.33;9.83;;;;;;;4.51;85.16;97310.22;5008892;28;20648;-72
2023/01/13 04:21:47;;;;;;;11.27;6.83;;;;;;;4.37;85.65;97309.59;5008580;28;20187;-73
2023/01/13 04:24:14;;;;;;;10.10;5.97;;;;;;;4.26;85.99;97311.53;5010321;28;20287;-73
2023/01/13 04:26:41;;;;;;;9.37;6.53;;;;;;;4.11;86.87;97317.75;5006986;28;20280;-74
2023/01/13 04:29:08;;;;;;;5.30;4.00;;;;;;;4.23;86.34;97319.25;5009539;28;20188;-73
2023/01/13 04:31:34;;;;;;;4.73;3.73;;;;;;;4.30;85.99;97308.03;5005624;28;20242;-72
2023/01/13 04:34:02;;;;;;;7.27;3.50;;;;;;;4.32;85.13;97313.97;5000390;28;20229;-72
2023/01/13 04:36:28;;;;;;;4.03;3.60;;;;;;;4.40;85.68;97301.88;5001805;28;20703;-71
2023/01/13 04:38:55;;;;;;;7.53;3.90;;;;;;;4.43;83.98;97322.31;5006690;28;20201;-71
2023/01/13 04:41:22;;;;;;;3.27;2.67;;;;;;;4.22;83.88;97315.00;5009883;28;20196;-75
2023/01/13 04:43:49;;;;;;;3.63;2.40;;;;;;;4.14;84.46;97327.09;5004173;28;20191;-70
2023/01/13 04:46:16;;;;;;;3.73;2.70;;;;;;;4.12;85.68;97319.41;4998362;28;20232;-77
2023/01/13 04:48:43;;;;;;;2.73;2.50;;;;;;;4.23;85.52;97326.94;4999262;28;20242;-71
2023/01/13 04:51:10;;;;;;;4.30;2.30;;;;;;;4.19;85.59;97330.41;4997906;28;20202;-73
2023/01/13 04:53:37;;;;;;;3.10;2.20;;;;;;;4.12;85.14;97333.97;5001479;28;20187;-71
2023/01/13 04:56:04;;;;;;;4.40;3.00;;;;;;;4.02;86.43;97337.50;5007510;28;20199;-75
2023/01/13 04:58:31;;;;;;;5.43;3.23;;;;;;;3.88;86.09;97335.19;5008670;28;20218;-73
2023/01/13 05:00:58;;;;;;;3.33;3.03;;;;;;;3.99;86.48;97337.56;5005735;28;20197;-74
2023/01/13 05:03:25;;;;;;;4.87;3.40;;;;;;;4.17;86.42;97339.84;5008734;28;20686;-72
2023/01/13 05:05:52;;;;;;;5.90;4.13;;;;;;;4.27;85.70;97336.25;5004717;28;20247;-71
2023/01/13 05:08:19;;;;;;;5.23;3.50;;;;;;;4.38;85.66;97349.75;5008518;28;20205;-73
2023/01/13 05:10:46;;;;;;;7.30;3.77;;;;;;;4.44;85.26;97357.34;5008815;28;20197;-74
2023/01/13 05:18:45;;;;;;;4.47;3.27;;;;;;;4.02;86.73;97347.75;4989330;28;20235;-72
2023/01/13 05:25:20;;;;;;;4.77;3.17;;;;;;;3.99;87.23;97363.19;5001847;28;20695;-77
2023/01/13 05:26:45;;;;;;;4.80;4.17;;;;;;;3.91;88.02;97367.59;4987312;28;20742;-73
2023/01/13 05:29:11;;;;;;;4.63;3.33;;;;;;;3.97;87.87;97370.91;4989053;28;20268;-76
2023/01/13 05:31:38;;;;;;;4.30;3.20;;;;;;;4.09;87.72;97367.31;4985982;28;20187;-72
2023/01/13 05:34:05;;;;;;;4.37;3.53;;;;;;;4.12;87.62;97380.91;4989108;28;20189;-71
2023/01/13 05:36:32;;;;;;;7.03;4.90;;;;;;;4.26;88.09;97357.66;4988245;28;20213;-72
2023/01/13 05:38:59;;;;;;;4.93;4.00;;;;;;;4.32;87.39;97378.06;4987890;28;20197;-73
2023/01/13 05:44:12;;;;;;;4.33;3.93;;;;;;;4.43;87.58;97376.16;4985672;28;20222;-74
2023/01/13 05:46:40;;;;;;;6.77;4.23;;;;;;;4.51;86.60;97379.47;4987592;28;20235;-72
2023/01/13 05:49:07;;;;;;;5.43;3.83;;;;;;;4.53;87.52;97385.41;4987223;28;20196;-72
2023/01/13 05:51:34;;;;;;;5.13;4.50;;;;;;;4.52;87.52;97370.03;4988254;28;20260;-71
2023/01/13 05:54:01;;;;;;;5.70;4.50;;;;;;;4.57;87.20;97379.34;4988192;28;20227;-72
2023/01/13 05:56:28;;;;;;;5.70;4.10;;;;;;;4.60;87.16;97369.03;4970230;28;20204;-77
2023/01/13 05:58:55;;;;;;;5.73;4.23;;;;;;;4.50;88.88;97372.63;4988608;28;20217;-76
2023/01/13 06:01:22;;;;;;;4.70;3.70;;;;;;;4.49;87.46;97380.34;4985635;28;20193;-74
2023/01/13 06:03:49;;;;;;;5.40;3.87;;;;;;;4.40;87.52;97355.69;4987191;28;20672;-73
2023/01/13 06:06:17;;;;;;;6.50;4.30;;;;;;;4.58;87.07;97367.34;4985448;28;20223;-75
2023/01/13 06:08:44;;;;;;;8.63;5.43;;;;;;;4.62;87.27;97382.66;4988716;28;20645;-80
2023/01/13 06:11:12;;;;;;;8.17;5.10;;;;;;;4.59;88.37;97379.31;4987806;28;20228;-78
2023/01/13 06:13:39;;;;;;;11.03;6.93;;;;;;;4.65;87.91;97372.38;4987747;28;20192;-71
2023/01/13 06:16:06;;;;;;;8.83;6.17;;;;;;;4.77;87.10;97384.97;4988340;28;20189;-72
2023/01/13 06:18:33;;;;;;;11.97;7.37;;;;;;;4.76;86.99;97382.44;4986623;28;20236;-74
2023/01/13 06:21:00;;;;;;;10.27;7.30;;;;;;;4.82;87.54;97384.91;4988093;28;20194;-72
2023/01/13 06:23:27;;;;;;;13.80;8.30;;;;;;;4.89;87.41;97387.31;4985401;28;20590;-74
2023/01/13 06:26:02;;;;;;;9.60;7.03;;;;;;;4.92;87.72;97392.38;4986931;28;20234;-75
2023/01/13 06:28:29;;;;;;;7.83;4.77;;;;;;;4.90;87.07;97394.13;4987293;28;20195;-72
2023/01/13 06:30:59;;;;;;;6.90;4.97;;;;;;;4.87;88.23;97395.91;4987397;28;20830;-76
2023/01/13 06:33:32;;;;;;;6.87;5.63;;;;;;;4.92;87.54;97378.72;4987186;28;20188;-78
2023/01/13 06:36:05;;;;;;;6.47;5.87;;;;;;;4.87;86.80;97381.38;4986471;28;20295;-71
2023/01/13 06:38:34;;;;;;;9.30;5.97;;;;;;;4.72;87.67;97384.19;4986988;28;20579;-73
2023/01/13 06:41:03;;;;;;;9.50;5.93;;;;;;;4.87;88.55;97377.97;4986213;28;20677;-76
2023/01/13 06:43:30;;;;;;;10.70;7.50;;;;;;;4.79;87.53;97380.66;5002510;28;20201;-73
2023/01/13 06:46:01;;;;;;;11.47;8.27;;;;;;;4.79;87.75;97372.97;4969725;28;20238;-73
2023/01/13 06:48:34;;;;;;;9.40;7.27;;;;;;;4.89;88.47;97387.31;4986753;28;20245;-74
2023/01/13 06:51:03;;;;;;;12.27;8.90;;;;;;;4.90;88.28;97381.31;4987690;28;20215;-74
2023/01/13 06:54:10;;;;;;;11.70;8.50;;;;;;;4.92;87.66;97365.91;4990370;28;20237;-75
2023/01/13 06:57:30;;;;;;;12.03;8.83;;;;;;;5.10;88.17;97390.38;5018008;28;20319;-75
2023/01/13 07:00:52;;;;;;;14.60;10.17;;;;;;;5.17;88.33;97399.66;4990457;28;20192;-73
2023/01/13 07:04:13;;;;;;;14.07;9.40;;;;;;;5.17;87.57;97389.38;4989890;28;20672;-78
2023/01/13 07:07:37;;;;;;;13.07;8.53;;;;;;;5.33;87.64;97411.31;5021805;28;20637;-72
2023/01/13 07:10:58;;;;;;;13.40;8.77;;;;;;;5.27;87.39;97409.72;5017208;28;20223;-74
2023/01/13 07:17:59;;;;;;;14.53;9.30;;;;;;;5.16;87.97;97408.22;4972681;28;20237;-78
2023/01/13 07:21:19;;;;;;;24.13;13.97;;;;;;;5.21;88.23;97409.00;4989299;28;20203;-81
2023/01/13 07:24:40;;;;;;;13.47;9.43;;;;;;;5.11;87.17;97412.59;4971739;28;20252;-73
2023/01/13 07:28:01;;;;;;;16.87;10.93;;;;;;;4.97;87.77;97421.38;5002309;28;20718;-80
2023/01/13 07:31:21;;;;;;;17.53;12.27;;;;;;;5.18;87.34;97419.31;4990899;28;20200;-71
2023/01/13 07:34:42;;;;;;;20.20;13.83;;;;;;;5.26;87.56;97420.84;4991040;28;20674;-81
2023/01/13 07:38:03;;;;;;;19.63;12.93;;;;;;;5.29;87.70;97427.66;4971069;28;20251;-75
2023/01/13 07:45:02;;;;;;;20.03;12.60;;;;;;;5.45;86.83;97419.63;4989912;28;20198;-72
2023/01/13 07:48:23;;;;;;;18.63;13.33;;;;;;;5.34;86.87;97425.84;4990539;28;20193;-73
2023/01/13 07:51:44;;;;;;;20.17;13.43;;;;;;;5.15;88.61;97429.66;4988820;28;20200;-77
2023/01/13 07:55:04;;;;;;;26.03;16.77;;;;;;;5.27;87.89;97437.13;4986980;28;20746;-74
2023/01/13 07:58:25;;;;;;;19.67;13.67;;;;;;;4.92;88.25;97440.31;5001546;28;20747;-71
2023/01/13 08:01:46;;;;;;;21.53;14.97;;;;;;;4.93;88.96;97442.84;4988756;28;20227;-79
2023/01/13 08:05:09;;;;;;;22.80;14.03;;;;;;;5.31;88.48;97438.75;4988025;28;20197;-80
2023/01/13 08:08:33;;;;;;;27.63;16.53;;;;;;;5.49;87.44;97428.97;4987855;28;20200;-72
2023/01/13 08:13:16;;;;;;;23.53;14.87;;;;;;;5.71;87.44;97442.22;4988484;28;20237;-78
2023/01/13 08:15:34;;;;;;;20.70;13.57;;;;;;;5.53;87.07;97416.91;4989196;28;20225;-73
2023/01/13 08:18:55;;;;;;;17.40;12.30;;;;;;;5.61;86.03;97436.44;4990036;28;20233;-74
2023/01/13 08:22:16;;;;;;;17.10;10.87;;;;;;;5.73;86.79;97430.19;4987864;28;20192;-75
2023/01/13 08:25:36;;;;;;;17.57;12.67;;;;;;;5.90;86.10;97438.44;5014925;28;20546;-72
2023/01/13 08:28:57;;;;;;;19.37;11.90;;;;;;;6.07;85.57;97449.22;5014283;28;20683;-73
2023/01/13 08:32:18;;;;;;;22.23;11.80;;;;;;;6.13;85.96;97450.78;4989731;28;20201;-74
2023/01/13 08:35:39;;;;;;;18.17;10.03;;;;;;;6.20;84.04;97449.78;4987565;28;20337;-76
2023/01/13 08:39:00;;;;;;;17.13;10.00;;;;;;;6.02;83.81;97433.03;4986639;28;20206;-75
2023/01/13 08:42:21;;;;;;;13.73;9.43;;;;;;;6.18;84.51;97460.09;4987690;28;20650;-77
2023/01/13 08:45:41;;;;;;;17.50;10.00;;;;;;;6.24;83.85;97452.28;4986591;28;20593;-73
2023/01/13 08:49:02;;;;;;;12.83;8.30;;;;;;;6.13;83.23;97446.50;5001981;28;20189;-76
2023/01/13 08:52:23;;;;;;;12.97;8.20;;;;;;;6.27;82.58;97434.19;4987485;28;20194;-78
2023/01/13 08:55:44;;;;;;;9.67;6.80;;;;;;;6.39;81.28;97444.19;4987801;28;20223;-73
2023/01/13 08:59:08;;;;;;;12.80;9.33;;;;;;;6.68;81.26;97451.22;4988133;28;20764;-74
2023/01/13 09:02:29;;;;;;;11.23;8.70;;;;;;;6.81;82.13;97446.63;4989080;28;20187;-75
2023/01/13 09:05:49;;;;;;;16.97;10.83;;;;;;;6.81;81.73;97437.19;4989086;28;20221;-77
2023/01/13 09:09:10;;;;;;;12.73;7.87;;;;;;;6.65;79.94;97437.59;4987970;28;20556;-79
2023/01/13 09:13:13;;;;;;;13.57;8.37;;;;;;;6.68;81.19;97440.09;4987310;28;20191;-81
2023/01/13 09:16:15;;;;;;;14.00;9.70;;;;;;;6.68;82.09;97434.97;4986809;28;20623;-72
2023/01/13 09:19:35;;;;;;;13.17;9.47;;;;;;;6.84;81.22;97416.50;4988617;28;20234;-79
2023/01/13 09:22:56;;;;;;;8.90;6.80;;;;;;;6.79;80.31;97420.94;4988837;28;20192;-82
2023/01/13 09:26:16;;;;;;;11.27;7.80;;;;;;;6.77;81.30;97424.41;4987096;28;20245;-73
2023/01/13 09:29:37;;;;;;;18.03;10.80;;;;;;;7.09;82.12;97414.19;4984687;28;20340;-72
2023/01/13 09:36:37;;;;;;;10.87;7.37;;;;;;;7.16;81.50;97418.25;4988400;28;20201;-78
2023/01/13 09:39:57;;;;;;;9.90;7.30;;;;;;;7.32;81.33;97415.25;4987685;28;20701;-82
2023/01/13 09:50:05;;;;;;;15.07;7.87;;;;;;;7.11;81.09;97415.81;4988067;28;20192;-76
2023/01/13 09:53:26;;;;;;;8.17;6.07;;;;;;;7.05;80.81;97409.97;5014888;28;20596;-82
2023/01/13 09:56:47;;;;;;;10.17;7.63;;;;;;;7.02;80.95;97399.75;4986995;28;20285;-77
2023/01/13 10:00:08;;;;;;;7.30;5.43;;;;;;;7.09;79.88;97391.81;4984425;28;20198;-79
2023/01/13 10:02:55;;;;;;;8.07;5.40;;;;;;;7.30;78.23;97400.69;4985163;28;20275;-77
2023/01/13 10:05:59;;;;;;;8.30;5.93;;;;;;;7.31;78.29;97395.53;4985631;28;20270;-80
2023/01/13 10:09:19;;;;;;;10.83;7.30;;;;;;;7.51;78.25;97400.13;4984405;28;20284;-78
2023/01/13 10:16:02;;;;;;;8.40;5.83;;;;;;;7.69;77.53;97399.59;5018022;28;20199;-72
2023/01/13 10:19:25;;;;;;;7.97;5.60;;;;;;;7.71;76.79;97391.81;4987658;28;20239;-73
2023/01/13 10:22:47;;;;;;;9.50;6.73;;;;;;;7.84;76.83;97377.69;4970390;28;20196;-76
2023/01/13 10:25:52;;;;;;;8.97;7.00;;;;;;;7.88;76.60;97377.56;4983563;28;20190;-74
2023/01/13 10:29:12;;;;;;;8.53;6.67;;;;;;;7.85;74.81;97356.19;4985283;28;20243;-72
2023/01/13 10:32:33;;;;;;;7.77;6.70;;;;;;;7.89;75.58;97376.66;4984954;28;20221;-71
2023/01/13 10:36:12;;;;;;;8.83;5.53;;;;;;;7.99;75.48;97378.09;4986457;28;20383;-72
2023/01/13 10:39:34;;;;;;;8.93;6.57;;;;;;;8.11;74.08;97369.97;5016780;28;20202;-71
2023/01/13 10:42:54;;;;;;;12.33;7.30;;;;;;;7.76;75.48;97356.44;4986352;28;20187;-74
2023/01/13 10:46:15;;;;;;;12.20;8.70;;;;;;;7.71;73.98;97355.72;4985108;28;20310;-72
2023/01/13 10:49:28;;;;;;;7.93;6.60;;;;;;;7.51;74.93;97369.19;4985004;28;20544;-71
2023/01/13 10:52:55;;;;;;;9.33;6.40;;;;;;;7.56;75.48;97363.91;5012570;28;20286;-73
2023/01/13 10:56:16;;;;;;;13.07;8.00;;;;;;;7.76;76.00;97359.88;4983794;28;20195;-74
2023/01/13 10:59:53;;;;;;;15.23;8.93;;;;;;;8.01;75.43;97349.66;4986971;28;20234;-81
2023/01/13 11:03:12;;;;;;;15.03;7.77;;;;;;;8.19;75.49;97351.66;4987332;28;20586;-75
2023/01/13 11:06:38;;;;;;;10.37;7.27;;;;;;;8.34;75.66;97347.78;4984940;28;20226;-73
2023/01/13 11:09:59;;;;;;;16.73;7.83;;;;;;;8.35;75.55;97357.22;4983852;28;20194;-73
2023/01/13 11:13:00;;;;;;;14.27;8.40;;;;;;;8.28;75.14;97345.41;4985695;28;20192;-78
2023/01/13 11:15:56;;;;;;;13.10;8.90;;;;;;;8.34;75.51;97347.78;4987248;28;20199;-77
2023/01/13 11:19:12;;;;;;;14.17;10.07;;;;;;;8.26;76.10;97348.03;4986468;28;20231;-80
2023/01/13 11:22:41;;;;;;;18.70;9.60;;;;;;;8.46;75.15;97343.09;4985491;28;20214;-76
2023/01/13 11:26:02;;;;;;;21.23;10.70;;;;;;;8.61;75.43;97328.84;4983927;28;20198;-78
2023/01/13 11:29:23;;;;;;;15.43;10.23;;;;;;;8.92;74.27;97334.66;4987343;28;20192;-71
2023/01/13 11:32:55;;;;;;;15.97;10.10;;;;;;;8.86;74.37;97332.28;4986960;28;20196;-72
2023/01/13 11:35:56;;;;;;;14.10;10.30;;;;;;;8.47;76.01;97321.53;4985853;28;20200;-71
2023/01/13 11:39:03;;;;;;;22.70;13.40;;;;;;;8.62;75.52;97318.44;4985026;28;20196;-71
2023/01/13 11:42:24;;;;;;;29.80;15.27;;;;;;;8.59;76.16;97320.28;5003003;28;20211;-72
2023/01/13 11:45:40;;;;;;;19.53;11.67;;;;;;;8.72;75.58;97309.50;4988712;28;20188;-73
2023/01/13 11:49:00;;;;;;;15.43;9.73;;;;;;;8.43;75.89;97308.81;4989019;28;20247;-71
2023/01/13 11:52:30;;;;;;;16.17;10.60;;;;;;;8.58;76.44;97316.00;4989087;28;20192;-73
2023/01/13 11:56:08;;;;;;;18.63;11.07;;;;;;;8.55;76.20;97314.38;4990106;28;20188;-72
2023/01/13 11:59:17;;;;;;;18.77;8.10;;;;;;;8.80;75.20;97316.97;4990358;28;20675;-76
2023/01/13 12:02:16;;;;;;;9.97;7.80;;;;;;;8.78;75.04;97314.44;4989501;28;20194;-74
2023/01/13 12:04:57;;;;;;;6.77;5.27;;;;;;;8.88;73.67;97309.81;4988602;28;20191;-71
2023/01/13 12:08:15;;;;;;;6.50;4.37;;;;;;;9.03;72.48;97311.84;4990095;28;20235;-74
2023/01/13 12:11:11;;;;;;;7.60;5.00;;;;;;;9.17;71.83;97312.19;4987927;28;20639;-73
2023/01/13 12:14:05;;;;;;;6.90;4.27;;;;;;;9.18;71.88;97315.63;4986333;28;20203;-75
2023/01/13 12:17:26;;;;;;;5.00;4.00;;;;;;;8.81;72.24;97309.19;4987705;28;20192;-71
2023/01/13 12:20:29;;;;;;;6.83;4.17;;;;;;;8.61;73.21;97321.94;4987566;28;20755;-73
2023/01/13 12:23:56;;;;;;;7.13;4.80;;;;;;;8.19;74.31;97297.50;4972414;28;20225;-72
2023/01/13 12:27:21;;;;;;;7.77;5.63;;;;;;;8.27;75.29;97311.03;4988107;28;20232;-74
2023/01/13 12:30:44;;;;;;;6.10;4.57;;;;;;;8.24;76.17;97300.78;4985175;28;20196;-72
2023/01/13 12:33:48;;;;;;;4.33;3.77;;;;;;;8.01;75.78;97305.81;4987334;28;20202;-73
2023/01/13 12:36:54;;;;;;;13.60;8.50;;;;;;;8.02;76.24;97310.94;4989004;28;20210;-71
2023/01/13 12:39:53;;;;;;;9.53;5.33;;;;;;;8.10;76.61;97308.94;4988004;28;20192;-73
2023/01/13 12:47:14;;;;;;;4.90;4.17;;;;;;;7.85;77.56;97304.63;4989456;28;20224;-74
2023/01/13 12:50:20;;;;;;;5.47;4.27;;;;;;;7.84;77.48;97310.66;4988310;28;20234;-71
2023/01/13 12:53:49;;;;;;;5.13;4.20;;;;;;;7.77;78.62;97307.41;4985658;28;20191;-73
2023/01/13 12:57:09;;;;;;;5.87;4.90;;;;;;;7.81;78.17;97315.91;4987697;28;20211;-72
2023/01/13 12:59:59;;;;;;;9.37;6.80;;;;;;;8.04;78.21;97308.28;4989206;28;20199;-75
2023/01/13 13:03:15;;;;;;;6.27;4.37;;;;;;;7.89;78.13;97312.19;4988778;28;20201;-76
2023/01/13 13:06:15;;;;;;;7.13;5.77;;;;;;;8.08;78.68;97310.72;4985294;28;20707;-72
2023/01/13 13:09:36;;;;;;;7.50;4.87;;;;;;;7.98;79.27;97314.50;4988641;28;20192;-71
2023/01/13 13:16:17;;;;;;;10.83;6.17;;;;;;;8.31;78.67;97311.75;4988634;28;20187;-71
2023/01/13 13:19:16;;;;;;;10.37;5.77;;;;;;;8.39;78.85;97312.38;4986923;28;20314;-72
2023/01/13 13:22:16;;;;;;;9.10;4.13;;;;;;;8.43;78.20;97316.53;4988062;28;20700;-73
2023/01/13 13:25:00;;;;;;;7.63;5.00;;;;;;;8.16;78.95;97318.25;4988588;28;20194;-75
2023/01/13 13:28:24;;;;;;;8.40;5.30;;;;;;;8.19;78.27;97313.81;4987030;28;20219;-73
2023/01/13 13:31:56;;;;;;;6.70;4.63;;;;;;;8.19;78.83;97324.16;5017957;28;20631;-73
2023/01/13 13:35:03;;;;;;;10.23;4.20;;;;;;;8.32;78.52;97326.34;4961112;28;20251;-75
2023/01/13 13:49:15;;;;;;;12.17;5.13;;;;;;;8.11;79.53;97326.13;4987771;28;20199;-73
2023/01/13 13:52:21;;;;;;;10.83;6.47;;;;;;;8.15;79.75;97327.72;4988529;28;20195;-73
2023/01/13 13:55:42;;;;;;;8.97;6.23;;;;;;;8.18;79.54;97337.91;4988858;28;20192;-77
2023/01/13 13:59:03;;;;;;;12.40;7.40;;;;;;;8.10;80.04;97339.03;4984960;28;20266;-74
2023/01/13 14:02:23;;;;;;;9.47;5.77;;;;;;;8.00;80.00;97335.06;4985828;28;20577;-70
2023/01/13 14:05:50;;;;;;;6.27;4.60;;;;;;;8.01;79.28;97342.78;4987999;28;20218;-71
2023/01/13 14:09:14;;;;;;;5.47;4.30;;;;;;;7.89;80.03;97345.72;4988123;28;20210;-74
2023/01/13 14:12:34;;;;;;;7.73;4.87;;;;;;;7.87;80.73;97342.34;4987730;28;20279;-81
2023/01/13 14:16:05;;;;;;;4.60;3.83;;;;;;;7.96;81.16;97339.47;4983336;28;20295;-71
2023/01/13 14:19:25;;;;;;;5.33;4.50;;;;;;;7.96;80.87;97336.91;4986401;28;20305;-73
2023/01/13 14:23:04;;;;;;;12.97;5.20;;;;;;;7.98;80.77;97345.44;4987211;28;20231;-73
2023/01/13 14:26:27;;;;;;;8.77;6.13;;;;;;;7.90;81.49;97347.41;4987652;28;20734;-73
2023/01/13 14:29:48;;;;;;;16.40;7.57;;;;;;;7.99;82.17;97338.56;4987251;28;20202;-75
2023/01/13 14:33:12;;;;;;;9.03;5.67;;;;;;;7.90;81.52;97347.41;4984003;28;20199;-72
2023/01/13 14:36:22;;;;;;;6.07;5.10;;;;;;;7.89;82.33;97361.19;4986492;28;20698;-73
2023/01/13 14:39:03;;;;;;;7.57;5.03;;;;;;;7.94;81.63;97358.47;4980698;28;20756;-74